createdAt,value
2018-05-02T00:01:56.128Z,8.44
2018-05-02T00:04:24.554Z,8.50
2018-05-02T00:06:54.560Z,8.52
2018-05-02T00:09:23.307Z,8.71
2018-05-02T00:11:51.731Z,8.68
2018-05-02T00:14:22.203Z,8.60
2018-05-02T00:16:50.664Z,8.54
2018-05-02T00:19:19.082Z,8.36
2018-05-02T00:21:51.523Z,8.46
2018-05-02T00:24:25.513Z,8.44
2018-05-02T00:26:55.462Z,8.40
2018-05-02T00:29:25.770Z,8.40
2018-05-02T00:31:54.197Z,8.33
2018-05-02T00:34:22.774Z,8.32
2018-05-02T00:36:51.203Z,8.32
2018-05-02T00:39:19.666Z,8.26
2018-05-02T00:41:49.508Z,8.28
2018-05-02T00:44:17.951Z,8.38
2018-05-02T00:46:49.911Z,8.33
2018-05-02T00:49:18.350Z,8.25
2018-05-02T00:51:46.783Z,8.24
2018-05-02T00:54:15.221Z,8.25
2018-05-02T00:56:43.647Z,8.28
2018-05-02T00:59:17.288Z,8.34
2018-05-02T01:01:45.743Z,8.31
2018-05-02T01:04:14.146Z,8.28
2018-05-02T01:06:44.176Z,8.20
2018-05-02T01:09:14.833Z,8.23
2018-05-02T01:11:43.263Z,8.21
2018-05-02T01:14:13.390Z,8.32
2018-05-02T01:16:41.863Z,8.27
2018-05-02T01:19:13.686Z,8.35
2018-05-02T01:21:42.118Z,8.37
2018-05-02T01:24:10.580Z,8.34
2018-05-02T01:26:38.990Z,8.36
2018-05-02T01:29:07.391Z,8.41
2018-05-02T01:31:35.835Z,8.33
2018-05-02T01:34:04.261Z,8.35
2018-05-02T01:36:32.636Z,8.34
2018-05-02T01:39:00.994Z,8.43
2018-05-02T01:41:29.387Z,8.28
2018-05-02T01:43:57.821Z,8.35
2018-05-02T01:46:26.224Z,8.24
2018-05-02T01:49:02.239Z,8.29
2018-05-02T01:51:30.595Z,8.11
2018-05-02T01:53:59.023Z,7.99
2018-05-02T01:56:27.443Z,8.01
2018-05-02T01:58:55.835Z,7.98
2018-05-02T02:01:24.311Z,7.93
2018-05-02T02:03:52.696Z,7.89
2018-05-02T02:06:22.573Z,7.82
2018-05-02T02:08:50.991Z,7.79
2018-05-02T02:11:22.815Z,7.73
2018-05-02T02:13:51.223Z,7.92
2018-05-02T02:16:19.615Z,7.76
2018-05-02T02:18:48.070Z,7.78
2018-05-02T02:21:16.435Z,7.67
2018-05-02T02:23:44.819Z,7.72
2018-05-02T02:26:13.268Z,7.84
2018-05-02T02:28:43.361Z,7.90
2018-05-02T02:31:11.837Z,7.92
2018-05-02T02:33:40.239Z,7.81
2018-05-02T02:36:08.655Z,7.80
2018-05-02T02:38:37.096Z,7.80
2018-05-02T02:41:05.470Z,7.84
2018-05-02T02:43:33.931Z,7.88
2018-05-02T02:46:04.342Z,7.97
2018-05-02T02:48:36.772Z,7.98
2018-05-02T02:51:05.212Z,7.93
2018-05-02T02:53:33.598Z,7.90
2018-05-02T02:56:05.664Z,7.94
2018-05-02T02:58:39.046Z,7.82
2018-05-02T03:01:07.531Z,7.84
2018-05-02T03:03:35.970Z,7.78
2018-05-02T03:06:06.511Z,7.82
2018-05-02T03:08:36.523Z,7.91
2018-05-02T03:11:07.086Z,7.91
2018-05-02T03:13:35.567Z,7.94
2018-05-02T03:16:04.000Z,7.92
2018-05-02T03:18:32.452Z,7.88
2018-05-02T03:21:00.882Z,7.87
2018-05-02T03:23:31.286Z,7.77
2018-05-02T03:25:59.700Z,7.82
2018-05-02T03:28:28.137Z,7.76
2018-05-02T03:30:56.559Z,7.81
2018-05-02T03:33:24.932Z,7.76
2018-05-02T03:35:55.588Z,7.84
2018-05-02T03:38:24.040Z,7.72
2018-05-02T03:40:53.925Z,7.78
2018-05-02T03:43:22.363Z,7.77
2018-05-02T03:45:52.239Z,7.73
2018-05-02T03:48:20.739Z,7.80
2018-05-02T03:50:49.136Z,7.77
2018-05-02T03:53:17.539Z,7.73
2018-05-02T03:55:45.989Z,7.59
2018-05-02T03:58:20.523Z,7.70
2018-05-02T04:00:55.012Z,7.70
2018-05-02T04:03:29.608Z,7.65
2018-05-02T04:06:04.199Z,7.60
2018-05-02T04:08:33.308Z,7.62
2018-05-02T04:11:01.797Z,7.69
2018-05-02T04:13:31.851Z,7.59
2018-05-02T04:16:00.211Z,7.56
2018-05-02T04:18:29.507Z,7.68
2018-05-02T04:20:59.918Z,7.69
2018-05-02T04:23:32.720Z,7.66
2018-05-02T04:26:01.106Z,7.65
2018-05-02T04:28:29.527Z,7.72
2018-05-02T04:30:58.008Z,7.67
2018-05-02T04:33:26.419Z,7.67
2018-05-02T04:35:54.835Z,7.66
2018-05-02T04:38:23.451Z,7.72
2018-05-02T04:40:51.872Z,7.74
2018-05-02T04:43:21.800Z,7.66
2018-05-02T04:45:50.538Z,7.61
2018-05-02T04:48:18.933Z,7.65
2018-05-02T04:50:47.331Z,7.71
2018-05-02T04:53:15.798Z,7.81
2018-05-02T04:55:45.815Z,7.75
2018-05-02T04:58:14.279Z,7.80
2018-05-02T05:00:46.382Z,7.82
2018-05-02T05:03:14.843Z,7.84
2018-05-02T05:05:47.355Z,7.89
2018-05-02T05:08:15.795Z,7.90
2018-05-02T05:10:44.210Z,7.90
2018-05-02T05:13:12.694Z,8.04
2018-05-02T05:15:41.076Z,8.02
2018-05-02T05:18:09.448Z,8.02
2018-05-02T05:20:37.878Z,8.07
2018-05-02T05:23:06.263Z,8.07
2018-05-02T05:25:36.615Z,8.06
2018-05-02T05:28:05.091Z,7.94
2018-05-02T05:30:34.920Z,7.98
2018-05-02T05:33:03.407Z,7.95
2018-05-02T05:35:31.823Z,8.04
2018-05-02T05:38:00.286Z,7.99
2018-05-02T05:40:28.660Z,7.99
2018-05-02T05:42:57.033Z,7.93
2018-05-02T05:45:25.388Z,7.99
2018-05-02T05:47:55.247Z,8.06
2018-05-02T05:50:23.668Z,7.99
2018-05-02T05:52:52.068Z,8.06
2018-05-02T05:55:20.509Z,8.20
2018-05-02T05:57:52.107Z,8.07
2018-05-02T06:00:23.699Z,8.12
2018-05-02T06:02:52.099Z,8.08
2018-05-02T06:05:20.502Z,8.18
2018-05-02T06:07:48.934Z,8.17
2018-05-02T06:10:18.642Z,8.22
2018-05-02T06:12:47.111Z,8.22
2018-05-02T06:15:15.543Z,8.31
2018-05-02T06:17:43.976Z,8.37
2018-05-02T06:20:12.403Z,8.44
2018-05-02T06:22:40.807Z,8.51
2018-05-02T06:25:09.258Z,8.49
2018-05-02T06:27:37.668Z,8.55
2018-05-02T06:30:06.111Z,8.65
2018-05-02T06:32:34.574Z,8.65
2018-05-02T06:35:02.983Z,8.63
2018-05-02T06:37:31.519Z,8.80
2018-05-02T06:39:59.943Z,8.82
2018-05-02T06:42:28.407Z,8.75
2018-05-02T06:44:58.180Z,8.89
2018-05-02T06:47:27.644Z,8.95
2018-05-02T06:49:56.007Z,9.04
2018-05-02T06:52:24.465Z,9.07
2018-05-02T06:54:52.861Z,9.27
2018-05-02T06:57:22.295Z,9.38
2018-05-02T06:59:50.898Z,9.46
2018-05-02T07:02:19.343Z,9.64
2018-05-02T07:04:47.796Z,9.69
2018-05-02T07:07:19.315Z,9.69
2018-05-02T07:09:48.778Z,9.60
2018-05-02T07:12:18.190Z,9.69
2018-05-02T07:14:46.655Z,9.62
2018-05-02T07:17:15.080Z,9.51
2018-05-02T07:19:43.471Z,9.61
2018-05-02T07:22:13.447Z,9.63
2018-05-02T07:24:41.864Z,9.73
2018-05-02T07:27:10.282Z,9.75
2018-05-02T07:29:39.686Z,9.74
2018-05-02T07:32:09.508Z,9.62
2018-05-02T07:34:37.875Z,9.61
2018-05-02T07:37:06.335Z,9.67
2018-05-02T07:39:36.411Z,9.69
2018-05-02T07:42:04.843Z,9.73
2018-05-02T07:44:33.231Z,9.67
2018-05-02T07:47:02.896Z,9.75
2018-05-02T07:49:33.554Z,9.93
2018-05-02T07:52:02.050Z,9.95
2018-05-02T07:54:30.419Z,9.86
2018-05-02T07:56:58.869Z,9.81
2018-05-02T07:59:27.295Z,9.91
2018-05-02T08:01:55.716Z,9.97
2018-05-02T08:04:25.175Z,9.98
2018-05-02T08:06:53.636Z,10.17
2018-05-02T08:09:23.076Z,10.34
2018-05-02T08:11:52.495Z,10.36
2018-05-02T08:14:23.149Z,10.44
2018-05-02T08:16:52.405Z,10.56
2018-05-02T08:19:22.167Z,10.61
2018-05-02T08:21:50.596Z,10.35
2018-05-02T08:24:19.051Z,10.38
2018-05-02T08:26:47.440Z,10.44
2018-05-02T08:29:15.852Z,10.42
2018-05-02T08:31:44.279Z,10.42
2018-05-02T08:34:12.671Z,10.35
2018-05-02T08:36:41.140Z,10.41
2018-05-02T08:39:09.555Z,10.32
2018-05-02T08:41:37.974Z,10.27
2018-05-02T08:44:06.423Z,10.36
2018-05-02T08:46:35.886Z,10.57
2018-05-02T08:49:04.324Z,10.35
2018-05-02T08:51:32.809Z,10.52
2018-05-02T08:54:01.268Z,10.70
2018-05-02T08:56:28.665Z,10.85
2018-05-02T08:58:58.459Z,10.83
2018-05-02T09:01:26.819Z,11.01
2018-05-02T09:03:56.294Z,10.80
2018-05-02T09:06:24.681Z,10.83
2018-05-02T09:08:54.446Z,10.94
2018-05-02T09:11:22.836Z,11.03
2018-05-02T09:13:51.284Z,11.11
2018-05-02T09:16:18.604Z,11.19
2018-05-02T09:18:48.164Z,11.22
2018-05-02T09:21:16.586Z,11.37
2018-05-02T09:23:43.916Z,11.37
2018-05-02T09:26:12.327Z,11.24
2018-05-02T09:28:40.681Z,11.31
2018-05-02T09:31:09.067Z,11.62
2018-05-02T09:33:38.465Z,12.27
2018-05-02T09:36:07.770Z,12.88
2018-05-02T09:38:39.462Z,13.56
2018-05-02T09:41:06.744Z,14.22
2018-05-02T09:43:36.163Z,14.91
2018-05-02T09:46:03.521Z,15.83
2018-05-02T09:48:34.262Z,16.08
2018-05-02T09:51:02.517Z,16.11
2018-05-02T09:53:31.635Z,15.99
2018-05-02T09:55:58.967Z,15.78
2018-05-02T09:58:29.960Z,16.30
2018-05-02T10:00:57.260Z,17.04
2018-05-02T10:03:25.296Z,17.08
2018-05-02T10:05:52.594Z,16.71
2018-05-02T10:08:20.886Z,16.58
2018-05-02T10:10:48.301Z,16.00
2018-05-02T10:13:19.089Z,15.39
2018-05-02T10:15:46.393Z,15.82
2018-05-02T10:18:17.118Z,15.99
2018-05-02T10:20:44.484Z,16.33
2018-05-02T10:23:11.780Z,16.71
2018-05-02T10:25:39.132Z,16.89
2018-05-02T10:28:09.103Z,17.15
2018-05-02T10:30:36.411Z,16.84
2018-05-02T10:33:04.844Z,16.85
2018-05-02T10:35:32.261Z,16.84
2018-05-02T10:37:59.597Z,16.99
2018-05-02T10:40:26.925Z,17.46
2018-05-02T10:42:54.244Z,17.41
2018-05-02T10:45:22.331Z,17.04
2018-05-02T10:47:49.704Z,16.88
2018-05-02T10:50:21.063Z,17.16
2018-05-02T10:52:48.389Z,17.10
2018-05-02T10:55:19.530Z,16.39
2018-05-02T10:57:47.587Z,16.38
2018-05-02T11:00:14.925Z,16.59
2018-05-02T11:02:42.260Z,16.96
2018-05-02T11:05:09.569Z,17.39
2018-05-02T11:07:36.890Z,17.31
2018-05-02T11:10:07.631Z,17.24
2018-05-02T11:12:34.935Z,17.75
2018-05-02T11:15:02.629Z,18.11
2018-05-02T11:17:30.717Z,18.13
2018-05-02T11:19:58.057Z,18.57
2018-05-02T11:22:25.650Z,18.66
2018-05-02T11:24:52.994Z,18.58
2018-05-02T11:27:21.741Z,18.32
2018-05-02T11:29:49.152Z,17.95
2018-05-02T11:32:17.491Z,17.72
2018-05-02T11:34:44.826Z,17.71
2018-05-02T11:37:12.489Z,17.82
2018-05-02T11:39:40.601Z,17.78
2018-05-02T11:42:07.891Z,17.95
2018-05-02T11:44:35.225Z,17.68
2018-05-02T11:47:03.390Z,17.63
2018-05-02T11:49:32.311Z,17.53
2018-05-02T11:51:59.734Z,17.05
2018-05-02T11:54:29.387Z,16.76
2018-05-02T11:56:57.817Z,16.98
2018-05-02T11:59:25.479Z,16.86
2018-05-02T12:01:54.939Z,17.05
2018-05-02T12:04:23.367Z,17.12
2018-05-02T12:06:50.707Z,17.39
2018-05-02T12:09:21.440Z,17.50
2018-05-02T12:11:49.082Z,17.57
2018-05-02T12:14:17.498Z,17.41
2018-05-02T12:16:45.552Z,17.53
2018-05-02T12:19:12.900Z,17.63
2018-05-02T12:21:43.696Z,17.41
2018-05-02T12:24:11.020Z,17.44
2018-05-02T12:26:38.375Z,17.41
2018-05-02T12:29:06.820Z,17.44
2018-05-02T12:31:34.233Z,17.63
2018-05-02T12:34:02.658Z,17.70
2018-05-02T12:36:30.004Z,17.25
2018-05-02T12:38:58.387Z,17.50
2018-05-02T12:41:25.729Z,17.34
2018-05-02T12:43:54.116Z,17.27
2018-05-02T12:46:21.477Z,17.60
2018-05-02T12:48:49.902Z,17.57
2018-05-02T12:51:17.265Z,17.28
2018-05-02T12:53:44.569Z,17.41
2018-05-02T12:56:14.099Z,17.13
2018-05-02T12:58:42.480Z,17.03
2018-05-02T13:01:09.841Z,16.88
2018-05-02T13:03:39.148Z,16.79
2018-05-02T13:06:06.556Z,16.78
2018-05-02T13:08:35.550Z,17.09
2018-05-02T13:11:02.894Z,17.13
2018-05-02T13:13:32.411Z,17.10
2018-05-02T13:16:03.124Z,17.00
2018-05-02T13:18:30.459Z,16.77
2018-05-02T13:20:59.786Z,16.66
2018-05-02T13:23:28.287Z,16.70
2018-05-02T13:25:55.556Z,16.70
2018-05-02T13:28:26.323Z,16.99
2018-05-02T13:30:53.647Z,17.09
2018-05-02T13:33:24.672Z,17.06
2018-05-02T13:35:52.036Z,16.86
2018-05-02T13:38:20.392Z,16.83
2018-05-02T13:40:47.754Z,16.75
2018-05-02T13:43:15.848Z,16.68
2018-05-02T13:45:46.616Z,16.93
2018-05-02T13:48:14.012Z,17.09
2018-05-02T13:50:41.334Z,17.00
2018-05-02T13:53:12.080Z,16.89
2018-05-02T13:55:39.396Z,16.92
2018-05-02T13:58:10.158Z,16.67
2018-05-02T14:00:37.454Z,16.67
2018-05-02T14:03:06.967Z,16.82
2018-05-02T14:05:34.263Z,16.56
2018-05-02T14:08:03.718Z,16.63
2018-05-02T14:10:31.048Z,16.61
2018-05-02T14:13:00.512Z,16.50
2018-05-02T14:15:29.013Z,16.83
2018-05-02T14:17:57.427Z,16.74
2018-05-02T14:20:25.518Z,17.03
2018-05-02T14:22:55.079Z,16.89
2018-05-02T14:25:25.791Z,16.93
2018-05-02T14:27:53.105Z,16.88
2018-05-02T14:30:22.594Z,16.76
2018-05-02T14:32:51.090Z,16.82
2018-05-02T14:35:20.395Z,16.69
2018-05-02T14:37:48.763Z,16.84
2018-05-02T14:40:17.414Z,16.84
2018-05-02T14:42:46.840Z,16.80
2018-05-02T14:45:15.294Z,16.45
2018-05-02T14:47:43.747Z,16.40
2018-05-02T14:50:12.187Z,16.40
2018-05-02T14:52:39.576Z,16.61
2018-05-02T14:55:09.037Z,16.57
2018-05-02T14:57:37.441Z,16.80
2018-05-02T15:00:04.809Z,16.72
2018-05-02T15:02:34.279Z,16.88
2018-05-02T15:05:03.913Z,16.74
2018-05-02T15:07:34.705Z,16.67
2018-05-02T15:10:02.116Z,16.67
2018-05-02T15:12:31.585Z,16.71
2018-05-02T15:14:59.998Z,16.68
2018-05-02T15:17:28.349Z,16.65
2018-05-02T15:19:56.707Z,16.58
2018-05-02T15:22:24.041Z,16.65
2018-05-02T15:24:54.983Z,16.53
2018-05-02T15:27:23.404Z,16.55
2018-05-02T15:29:51.847Z,16.57
2018-05-02T15:32:19.192Z,16.64
2018-05-02T15:34:48.679Z,16.53
2018-05-02T15:37:17.454Z,16.45
2018-05-02T15:39:44.876Z,16.53
2018-05-02T15:42:13.983Z,16.41
2018-05-02T15:44:42.422Z,16.53
2018-05-02T15:47:09.821Z,16.25
2018-05-02T15:49:39.271Z,16.22
2018-05-02T15:52:07.715Z,16.08
2018-05-02T15:54:35.053Z,16.04
2018-05-02T15:57:04.604Z,16.02
2018-05-02T15:59:35.372Z,16.00
2018-05-02T16:02:02.773Z,15.77
2018-05-02T16:04:32.261Z,15.70
2018-05-02T16:07:00.786Z,15.94
2018-05-02T16:09:28.101Z,15.95
2018-05-02T16:11:57.601Z,15.85
2018-05-02T16:14:26.051Z,15.82
2018-05-02T16:16:53.440Z,15.82
2018-05-02T16:19:22.979Z,15.71
2018-05-02T16:21:50.381Z,15.59
2018-05-02T16:24:20.144Z,15.68
2018-05-02T16:26:47.500Z,15.65
2018-05-02T16:29:17.023Z,15.65
2018-05-02T16:31:45.431Z,15.65
2018-05-02T16:34:12.844Z,15.81
2018-05-02T16:36:44.050Z,15.62
2018-05-02T16:39:11.417Z,15.74
2018-05-02T16:41:40.914Z,15.73
2018-05-02T16:44:09.349Z,15.45
2018-05-02T16:46:36.708Z,15.48
2018-05-02T16:49:06.146Z,15.40
2018-05-02T16:51:34.599Z,15.35
2018-05-02T16:54:02.724Z,15.40
2018-05-02T16:56:32.268Z,15.32
2018-05-02T16:59:02.926Z,15.40
2018-05-02T17:01:30.497Z,15.32
2018-05-02T17:04:00.204Z,15.29
2018-05-02T17:06:29.899Z,15.26
2018-05-02T17:08:57.276Z,15.18
2018-05-02T17:11:27.699Z,15.07
2018-05-02T17:13:55.953Z,15.08
2018-05-02T17:16:25.567Z,14.96
2018-05-02T17:18:52.957Z,15.09
2018-05-02T17:21:24.907Z,14.95
2018-05-02T17:23:52.267Z,14.87
2018-05-02T17:26:21.834Z,14.81
2018-05-02T17:28:49.219Z,14.74
2018-05-02T17:31:19.255Z,14.79
2018-05-02T17:33:47.731Z,14.67
2018-05-02T17:36:15.092Z,14.72
2018-05-02T17:38:44.938Z,14.64
2018-05-02T17:41:13.348Z,14.54
2018-05-02T17:43:44.183Z,14.49
2018-05-02T17:46:11.506Z,14.54
2018-05-02T17:48:42.925Z,14.67
2018-05-02T17:51:10.293Z,14.43
2018-05-02T17:53:40.020Z,14.33
2018-05-02T17:56:07.353Z,14.27
2018-05-02T17:58:38.170Z,14.28
2018-05-02T18:01:05.956Z,14.27
2018-05-02T18:03:35.854Z,14.31
2018-05-02T18:06:03.244Z,14.19
2018-05-02T18:08:35.823Z,14.42
2018-05-02T18:11:03.116Z,14.28
2018-05-02T18:13:33.923Z,14.16
2018-05-02T18:16:01.240Z,14.12
2018-05-02T18:18:33.672Z,14.18
2018-05-02T18:21:01.001Z,14.36
2018-05-02T18:23:31.488Z,14.06
2018-05-02T18:25:58.874Z,13.98
2018-05-02T18:28:28.738Z,14.03
2018-05-02T18:30:56.060Z,13.93
2018-05-02T18:33:26.116Z,13.95
2018-05-02T18:36:00.027Z,14.00
2018-05-02T18:38:28.553Z,13.81
2018-05-02T18:40:55.903Z,13.87
2018-05-02T18:43:27.067Z,13.82
2018-05-02T18:45:54.437Z,13.78
2018-05-02T18:48:26.540Z,13.87
2018-05-02T18:50:53.925Z,13.65
2018-05-02T18:53:25.578Z,13.65
2018-05-02T18:55:52.942Z,13.49
2018-05-02T18:58:25.442Z,13.67
2018-05-02T19:00:52.789Z,13.55
2018-05-02T19:03:22.283Z,13.59
2018-05-02T19:05:53.122Z,13.39
2018-05-02T19:08:20.520Z,13.25
2018-05-02T19:10:50.272Z,13.29
2018-05-02T19:13:18.386Z,13.22
2018-05-02T19:15:48.556Z,13.12
2018-05-02T19:18:22.206Z,13.14
2018-05-02T19:20:53.419Z,13.15
2018-05-02T19:23:20.796Z,13.25
2018-05-02T19:25:58.031Z,13.17
2018-05-02T19:28:25.551Z,13.11
2018-05-02T19:31:02.628Z,13.11
2018-05-02T19:33:36.365Z,13.09
2018-05-02T19:36:09.509Z,13.14
2018-05-02T19:38:37.533Z,13.03
2018-05-02T19:41:14.679Z,13.18
2018-05-02T19:43:48.288Z,13.07
2018-05-02T19:46:19.178Z,13.04
2018-05-02T19:48:46.549Z,13.13
2018-05-02T19:51:23.719Z,12.96
2018-05-02T19:53:51.551Z,13.36
2018-05-02T19:56:22.887Z,12.92
2018-05-02T19:58:51.089Z,13.10
2018-05-02T20:01:27.250Z,12.70
2018-05-02T20:03:55.104Z,12.66
2018-05-02T20:06:25.110Z,12.76
2018-05-02T20:08:59.244Z,12.48
2018-05-02T20:11:35.368Z,12.56
2018-05-02T20:14:04.123Z,12.50
2018-05-02T20:16:34.955Z,12.45
2018-05-02T20:19:02.324Z,12.42
2018-05-02T20:21:33.133Z,12.49
2018-05-02T20:24:00.595Z,12.44
2018-05-02T20:26:31.484Z,12.43
2018-05-02T20:28:59.690Z,12.49
2018-05-02T20:31:29.600Z,12.47
2018-05-02T20:33:56.987Z,12.42
2018-05-02T20:36:28.527Z,12.46
2018-05-02T20:38:55.801Z,12.80
2018-05-02T20:41:25.868Z,12.66
2018-05-02T20:43:53.957Z,12.37
2018-05-02T20:46:26.309Z,12.29
2018-05-02T20:48:54.386Z,12.26
2018-05-02T20:51:24.304Z,12.32
2018-05-02T20:53:52.397Z,12.28
2018-05-02T20:56:23.339Z,12.35
2018-05-02T20:58:50.716Z,12.33
2018-05-02T21:01:21.472Z,12.32
2018-05-02T21:03:49.040Z,12.34
2018-05-02T21:06:19.803Z,12.32
2018-05-02T21:08:47.140Z,12.24
2018-05-02T21:11:17.901Z,12.21
2018-05-02T21:13:45.250Z,12.23
2018-05-02T21:16:16.867Z,12.29
2018-05-02T21:18:44.997Z,12.27
2018-05-02T21:21:15.756Z,12.27
2018-05-02T21:23:43.141Z,12.27
2018-05-02T21:26:14.052Z,12.25
2018-05-02T21:28:41.377Z,12.25
2018-05-02T21:31:12.128Z,12.12
2018-05-02T21:33:39.446Z,12.18
2018-05-02T21:36:09.343Z,12.15
2018-05-02T21:38:36.700Z,12.13
2018-05-02T21:41:06.380Z,12.09
2018-05-02T21:43:33.725Z,12.00
2018-05-02T21:46:04.466Z,12.05
2018-05-02T21:48:31.808Z,11.95
2018-05-02T21:51:02.546Z,11.95
2018-05-02T21:53:29.884Z,11.88
2018-05-02T21:56:00.643Z,11.90
2018-05-02T21:58:27.937Z,11.91
2018-05-02T22:00:57.743Z,11.85
2018-05-02T22:03:25.069Z,11.84
2018-05-02T22:05:56.120Z,11.80
2018-05-02T22:08:24.177Z,11.78
2018-05-02T22:10:56.004Z,11.78
2018-05-02T22:13:23.364Z,11.73
2018-05-02T22:15:53.301Z,11.73
2018-05-02T22:18:20.624Z,11.63
2018-05-02T22:20:50.371Z,11.57
2018-05-02T22:23:17.700Z,11.66
2018-05-02T22:25:48.489Z,11.73
2018-05-02T22:28:15.829Z,11.82
2018-05-02T22:30:46.556Z,11.72
2018-05-02T22:33:14.665Z,11.74
2018-05-02T22:35:47.015Z,11.66
2018-05-02T22:38:14.368Z,11.61
2018-05-02T22:40:45.123Z,11.66
2018-05-02T22:43:12.430Z,11.70
2018-05-02T22:45:43.242Z,11.71
2018-05-02T22:48:10.554Z,11.84
2018-05-02T22:50:40.783Z,11.68
2018-05-02T22:53:08.129Z,11.71
2018-05-02T22:55:38.080Z,11.82
2018-05-02T22:58:05.380Z,11.70
2018-05-02T23:00:37.610Z,11.76
2018-05-02T23:03:05.368Z,11.56
2018-05-02T23:05:36.114Z,11.48
2018-05-02T23:08:03.479Z,11.51
2018-05-02T23:10:34.219Z,11.53
2018-05-02T23:13:01.582Z,11.60
2018-05-02T23:15:32.366Z,11.53
2018-05-02T23:17:59.704Z,11.55
2018-05-02T23:20:30.445Z,11.49
2018-05-02T23:22:57.756Z,11.56
2018-05-02T23:25:28.506Z,11.49
2018-05-02T23:27:55.892Z,11.49
2018-05-02T23:30:23.286Z,11.50
2018-05-02T23:32:54.016Z,11.57
2018-05-02T23:35:21.352Z,11.44
2018-05-02T23:37:48.688Z,11.43
2018-05-02T23:40:16.053Z,11.39
2018-05-02T23:42:43.398Z,11.41
2018-05-02T23:45:10.728Z,11.51
2018-05-02T23:47:38.024Z,11.54
2018-05-02T23:50:05.345Z,11.49
2018-05-02T23:52:32.775Z,11.45
2018-05-02T23:55:00.805Z,11.45
2018-05-02T23:57:28.127Z,11.38
2018-05-02T23:59:55.429Z,11.38
